createdAt,value
2022-09-23T00:03:54.176Z,11.20
2022-09-23T00:06:23.899Z,11.10
2022-09-23T00:08:52.235Z,11.10
2022-09-23T00:11:23.346Z,11.10
2022-09-23T00:13:53.691Z,11.10
2022-09-23T00:16:24.661Z,11.10
2022-09-23T00:18:51.687Z,11.10
2022-09-23T00:21:22.292Z,11.10
2022-09-23T00:23:49.511Z,11.10
2022-09-23T00:26:19.289Z,11.00
2022-09-23T00:28:46.817Z,11.00
2022-09-23T00:31:17.489Z,11.00
2022-09-23T00:33:44.639Z,11.00
2022-09-23T00:36:16.540Z,11.00
2022-09-23T00:38:45.571Z,11.00
2022-09-23T00:41:13.599Z,11.00
2022-09-23T00:43:43.967Z,10.90
2022-09-23T00:46:16.875Z,10.90
2022-09-23T00:48:45.110Z,10.90
2022-09-23T00:51:17.952Z,10.90
2022-09-23T00:53:50.202Z,10.90
2022-09-23T00:56:21.078Z,10.90
2022-09-23T00:58:51.088Z,10.90
2022-09-23T01:01:19.584Z,10.90
2022-09-23T01:03:46.914Z,10.90
2022-09-23T01:06:14.536Z,10.90
2022-09-23T01:08:45.689Z,10.90
2022-09-23T01:11:42.339Z,10.80
2022-09-23T01:14:36.761Z,10.80
2022-09-23T01:17:12.411Z,10.80
2022-09-23T01:20:26.446Z,10.80
2022-09-23T01:23:08.929Z,10.80
2022-09-23T01:26:01.786Z,10.70
2022-09-23T01:28:51.804Z,10.70
2022-09-23T01:31:28.426Z,10.70
2022-09-23T01:34:02.281Z,10.70
2022-09-23T01:36:39.664Z,10.70
2022-09-23T01:39:16.097Z,10.70
2022-09-23T01:41:55.460Z,10.60
2022-09-23T01:44:32.050Z,10.70
2022-09-23T01:47:08.862Z,10.60
2022-09-23T01:49:48.475Z,10.60
2022-09-23T01:52:23.216Z,10.60
2022-09-23T01:54:57.884Z,10.60
2022-09-23T01:57:35.680Z,10.60
2022-09-23T02:00:13.378Z,10.50
2022-09-23T02:02:48.692Z,10.50
2022-09-23T02:05:24.203Z,10.50
2022-09-23T02:07:57.599Z,10.50
2022-09-23T02:10:30.350Z,10.50
2022-09-23T02:13:03.357Z,10.50
2022-09-23T02:15:37.999Z,10.50
2022-09-23T02:18:13.951Z,10.40
2022-09-23T02:20:41.468Z,10.40
2022-09-23T02:23:14.915Z,10.40
2022-09-23T02:25:53.433Z,10.40
2022-09-23T02:28:31.411Z,10.40
2022-09-23T02:31:08.295Z,10.40
2022-09-23T02:33:43.777Z,10.40
2022-09-23T02:36:20.435Z,10.40
2022-09-23T02:38:54.397Z,10.30
2022-09-23T02:41:28.617Z,10.30
2022-09-23T02:44:05.674Z,10.30
2022-09-23T02:46:33.830Z,10.30
2022-09-23T02:49:11.621Z,10.30
2022-09-23T02:51:40.168Z,10.30
2022-09-23T02:54:12.978Z,10.30
2022-09-23T02:56:40.655Z,10.30
2022-09-23T02:59:09.716Z,10.30
2022-09-23T03:01:53.353Z,10.20
2022-09-23T03:04:32.619Z,10.20
2022-09-23T03:07:05.726Z,10.20
2022-09-23T03:09:40.123Z,10.20
2022-09-23T03:12:16.051Z,10.20
2022-09-23T03:14:53.367Z,10.20
2022-09-23T03:17:29.086Z,10.10
2022-09-23T03:20:05.167Z,10.10
2022-09-23T03:22:37.812Z,10.10
2022-09-23T03:25:11.361Z,10.10
2022-09-23T03:27:40.641Z,10.10
2022-09-23T03:30:09.698Z,10.10
2022-09-23T03:32:39.191Z,10.10
2022-09-23T03:35:08.798Z,10.10
2022-09-23T03:37:40.130Z,10.10
2022-09-23T03:40:15.060Z,10.10
2022-09-23T03:42:42.169Z,10.10
2022-09-23T03:45:14.970Z,10.10
2022-09-23T03:47:41.774Z,10.20
2022-09-23T03:50:11.409Z,10.20
2022-09-23T03:52:38.116Z,10.20
2022-09-23T03:55:06.750Z,10.20
2022-09-23T03:57:33.827Z,10.20
2022-09-23T04:00:00.694Z,10.20
2022-09-23T04:02:27.853Z,10.20
2022-09-23T04:04:54.950Z,10.20
2022-09-23T04:07:23.332Z,10.20
2022-09-23T04:09:50.065Z,10.30
2022-09-23T04:12:17.269Z,10.30
2022-09-23T04:14:44.682Z,10.30
2022-09-23T04:17:12.227Z,10.30
2022-09-23T04:19:39.285Z,10.30
2022-09-23T04:22:07.193Z,10.40
2022-09-23T04:24:35.544Z,10.40
2022-09-23T04:27:03.007Z,10.40
2022-09-23T04:29:29.904Z,10.40
2022-09-23T04:31:56.958Z,10.40
2022-09-23T04:34:23.834Z,10.40
2022-09-23T04:36:50.621Z,10.40
2022-09-23T04:39:18.216Z,10.40
2022-09-23T04:41:46.834Z,10.40
2022-09-23T04:44:15.299Z,10.40
2022-09-23T04:46:43.305Z,10.40
2022-09-23T04:49:10.259Z,10.40
2022-09-23T04:51:37.232Z,10.40
2022-09-23T04:54:11.798Z,10.40
2022-09-23T04:56:39.411Z,10.40
2022-09-23T04:59:08.125Z,10.40
2022-09-23T05:01:36.012Z,10.40
2022-09-23T05:04:07.371Z,10.40
2022-09-23T05:06:35.731Z,10.40
2022-09-23T05:09:06.608Z,10.40
2022-09-23T05:11:35.370Z,10.40
2022-09-23T05:14:02.462Z,10.40
2022-09-23T05:16:31.061Z,10.30
2022-09-23T05:18:58.191Z,10.30
2022-09-23T05:21:26.939Z,10.30
2022-09-23T05:23:56.193Z,10.40
2022-09-23T05:26:25.857Z,10.40
2022-09-23T05:28:56.221Z,10.40
2022-09-23T05:31:56.817Z,10.40
2022-09-23T05:34:33.631Z,10.40
2022-09-23T05:37:00.662Z,10.40
2022-09-23T05:39:27.524Z,10.50
2022-09-23T05:41:54.393Z,10.50
2022-09-23T05:44:21.141Z,10.50
2022-09-23T05:46:49.553Z,10.60
2022-09-23T05:49:16.637Z,10.60
2022-09-23T05:51:43.565Z,10.70
2022-09-23T05:54:10.640Z,10.80
2022-09-23T05:56:37.496Z,10.90
2022-09-23T05:59:06.054Z,10.90
2022-09-23T06:01:35.960Z,10.90
2022-09-23T06:04:07.233Z,11.00
2022-09-23T06:06:37.382Z,11.10
2022-09-23T06:09:05.652Z,11.10
2022-09-23T06:11:35.354Z,11.10
2022-09-23T06:14:03.444Z,11.10
2022-09-23T06:16:34.175Z,11.20
2022-09-23T06:19:05.243Z,11.20
2022-09-23T06:21:37.802Z,11.20
2022-09-23T06:24:05.892Z,11.30
2022-09-23T06:26:32.991Z,11.30
2022-09-23T06:29:01.013Z,11.30
2022-09-23T06:31:28.695Z,11.30
2022-09-23T06:34:06.191Z,11.40
2022-09-23T06:36:43.280Z,11.40
2022-09-23T06:39:12.205Z,11.40
2022-09-23T06:41:38.974Z,11.40
2022-09-23T06:44:11.964Z,11.50
2022-09-23T06:46:39.138Z,11.50
2022-09-23T06:49:06.508Z,11.50
2022-09-23T06:51:33.477Z,11.60
2022-09-23T06:54:04.516Z,11.60
2022-09-23T06:56:34.929Z,11.70
2022-09-23T06:59:06.129Z,11.70
2022-09-23T07:01:33.214Z,11.80
2022-09-23T07:04:00.521Z,11.80
2022-09-23T07:06:27.417Z,12.00
2022-09-23T07:08:54.443Z,12.10
2022-09-23T07:11:22.706Z,12.20
2022-09-23T07:13:50.770Z,12.30
2022-09-23T07:16:17.675Z,12.30
2022-09-23T07:18:44.780Z,12.40
2022-09-23T07:21:14.250Z,12.70
2022-09-23T07:23:42.008Z,13.00
2022-09-23T07:26:09.068Z,13.40
2022-09-23T07:28:37.823Z,13.80
2022-09-23T07:31:06.922Z,14.30
2022-09-23T07:33:34.955Z,14.60
2022-09-23T07:36:07.666Z,14.70
2022-09-23T07:38:35.789Z,14.90
2022-09-23T07:41:05.375Z,15.10
2022-09-23T07:43:32.938Z,15.30
2022-09-23T07:46:05.470Z,15.50
2022-09-23T07:48:34.658Z,15.40
2022-09-23T07:51:08.068Z,15.30
2022-09-23T07:53:34.967Z,15.00
2022-09-23T07:56:02.259Z,15.20
2022-09-23T07:58:29.103Z,15.60
2022-09-23T08:01:04.256Z,16.00
2022-09-23T08:03:57.530Z,16.60
2022-09-23T08:06:24.799Z,16.40
2022-09-23T08:08:53.475Z,16.10
2022-09-23T08:11:20.725Z,16.00
2022-09-23T08:13:47.527Z,16.00
2022-09-23T08:16:15.780Z,16.10
2022-09-23T08:18:44.604Z,16.20
2022-09-23T08:21:12.102Z,16.30
2022-09-23T08:23:38.881Z,16.50
2022-09-23T08:26:10.202Z,16.50
2022-09-23T08:28:39.132Z,16.70
2022-09-23T08:31:06.023Z,16.70
2022-09-23T08:33:34.206Z,16.90
2022-09-23T08:36:02.857Z,16.80
2022-09-23T08:38:30.221Z,16.70
2022-09-23T08:41:15.396Z,16.80
2022-09-23T08:43:48.547Z,16.80
2022-09-23T08:46:25.991Z,16.90
2022-09-23T08:48:55.962Z,17.00
2022-09-23T08:51:32.985Z,17.10
2022-09-23T08:54:01.847Z,17.30
2022-09-23T08:56:37.909Z,17.90
2022-09-23T08:59:13.002Z,18.50
2022-09-23T09:01:45.134Z,19.00
2022-09-23T09:04:22.992Z,19.30
2022-09-23T09:07:07.545Z,19.60
2022-09-23T09:09:51.103Z,20.00
2022-09-23T09:12:30.641Z,20.50
2022-09-23T09:15:06.047Z,20.90
2022-09-23T09:17:37.339Z,21.20
2022-09-23T09:20:22.458Z,21.50
2022-09-23T09:22:55.373Z,21.80
2022-09-23T09:25:39.831Z,22.10
2022-09-23T09:28:22.194Z,22.60
2022-09-23T09:30:55.936Z,22.90
2022-09-23T09:33:30.366Z,23.10
2022-09-23T09:36:14.614Z,22.60
2022-09-23T09:38:41.685Z,22.60
2022-09-23T09:41:14.670Z,22.50
2022-09-23T09:43:45.173Z,22.60
2022-09-23T09:46:36.226Z,22.80
2022-09-23T09:49:14.016Z,23.10
2022-09-23T09:51:42.202Z,23.40
2022-09-23T09:54:23.361Z,23.60
2022-09-23T09:56:51.947Z,23.90
2022-09-23T09:59:25.380Z,23.90
2022-09-23T10:02:14.045Z,24.10
2022-09-23T10:04:41.408Z,24.40
2022-09-23T10:07:14.524Z,24.60
2022-09-23T10:09:50.198Z,24.20
2022-09-23T10:12:20.217Z,23.90
2022-09-23T10:14:49.241Z,23.90
2022-09-23T10:17:22.092Z,24.10
2022-09-23T10:19:54.157Z,24.20
2022-09-23T10:22:27.203Z,24.10
2022-09-23T10:24:57.179Z,24.40
2022-09-23T10:27:30.962Z,24.60
2022-09-23T10:30:01.113Z,24.80
2022-09-23T10:32:32.353Z,24.90
2022-09-23T10:35:13.695Z,24.90
2022-09-23T10:37:45.893Z,24.70
2022-09-23T10:40:28.546Z,24.60
2022-09-23T10:43:13.390Z,24.70
2022-09-23T10:45:42.710Z,24.50
2022-09-23T10:48:26.300Z,24.30
2022-09-23T10:50:55.414Z,24.30
2022-09-23T10:53:39.145Z,24.10
2022-09-23T10:56:25.429Z,23.80
2022-09-23T10:59:36.467Z,23.60
2022-09-23T11:02:28.143Z,23.40
2022-09-23T11:05:19.308Z,23.30
2022-09-23T11:07:56.448Z,23.30
2022-09-23T11:10:54.333Z,23.10
2022-09-23T11:13:44.884Z,22.90
2022-09-23T11:16:31.694Z,22.80
2022-09-23T11:19:20.712Z,22.60
2022-09-23T11:22:18.455Z,22.50
2022-09-23T11:25:13.121Z,22.30
2022-09-23T11:28:07.359Z,22.10
2022-09-23T11:30:55.252Z,21.90
2022-09-23T11:33:40.824Z,21.70
2022-09-23T11:36:16.392Z,21.50
2022-09-23T11:38:49.145Z,21.40
2022-09-23T11:41:23.143Z,21.30
2022-09-23T11:43:59.225Z,21.20
2022-09-23T11:46:35.905Z,21.20
2022-09-23T11:49:09.889Z,21.30
2022-09-23T11:51:46.327Z,21.30
2022-09-23T11:54:21.029Z,21.40
2022-09-23T11:56:54.474Z,21.70
2022-09-23T11:59:40.737Z,21.80
2022-09-23T12:02:22.301Z,22.00
2022-09-23T12:05:01.441Z,22.10
2022-09-23T12:07:43.384Z,22.00
2022-09-23T12:10:11.524Z,22.00
2022-09-23T12:12:47.951Z,21.90
2022-09-23T12:15:37.009Z,21.90
2022-09-23T12:18:28.003Z,22.00
2022-09-23T12:21:48.595Z,22.10
2022-09-23T12:24:49.703Z,22.30
2022-09-23T12:27:27.839Z,22.50
2022-09-23T12:30:03.332Z,22.40
2022-09-23T12:32:41.920Z,22.40
2022-09-23T12:35:24.263Z,22.30
2022-09-23T12:37:52.577Z,22.20
2022-09-23T12:40:27.035Z,22.20
2022-09-23T12:42:55.113Z,22.20
2022-09-23T12:45:43.353Z,22.20
2022-09-23T12:49:01.201Z,22.20
2022-09-23T12:51:29.962Z,22.20
2022-09-23T12:54:23.230Z,22.20
2022-09-23T12:57:03.173Z,22.10
2022-09-23T12:59:52.165Z,22.00
2022-09-23T13:02:30.141Z,21.90
2022-09-23T13:05:13.273Z,21.80
2022-09-23T13:07:46.978Z,21.70
2022-09-23T13:10:22.645Z,21.60
2022-09-23T13:12:51.314Z,21.70
2022-09-23T13:15:29.206Z,21.70
2022-09-23T13:18:24.991Z,21.80
2022-09-23T13:20:54.325Z,21.80
2022-09-23T13:23:24.522Z,21.60
2022-09-23T13:25:55.564Z,21.60
2022-09-23T13:28:38.945Z,21.60
2022-09-23T13:31:14.705Z,21.60
2022-09-23T13:33:47.074Z,21.40
2022-09-23T13:36:18.400Z,21.30
2022-09-23T13:38:46.560Z,21.10
2022-09-23T13:41:17.919Z,21.10
2022-09-23T13:43:49.153Z,21.00
2022-09-23T13:46:20.803Z,20.90
2022-09-23T13:48:51.804Z,20.80
2022-09-23T13:51:24.604Z,20.70
2022-09-23T13:53:53.138Z,20.60
2022-09-23T13:56:20.609Z,20.50
2022-09-23T13:58:47.616Z,20.50
2022-09-23T14:01:29.360Z,20.40
2022-09-23T14:03:56.242Z,20.20
2022-09-23T14:06:25.951Z,20.10
2022-09-23T14:08:53.839Z,20.00
2022-09-23T14:11:28.416Z,20.10
2022-09-23T14:13:56.934Z,20.10
2022-09-23T14:16:27.124Z,20.10
2022-09-23T14:18:58.311Z,20.20
2022-09-23T14:21:33.683Z,20.20
2022-09-23T14:24:14.220Z,20.20
2022-09-23T14:26:43.950Z,20.20
2022-09-23T14:29:17.434Z,20.20
2022-09-23T14:31:52.075Z,20.20
2022-09-23T14:34:46.511Z,20.30
2022-09-23T14:37:25.709Z,20.30
2022-09-23T14:39:57.586Z,20.40
2022-09-23T14:42:24.863Z,20.40
2022-09-23T14:44:51.709Z,20.50
2022-09-23T14:47:18.693Z,20.50
2022-09-23T14:49:48.173Z,20.50
2022-09-23T14:52:17.292Z,20.50
2022-09-23T14:54:45.176Z,20.60
2022-09-23T14:57:27.080Z,20.70
2022-09-23T14:59:59.925Z,20.80
2022-09-23T15:02:36.093Z,20.60
2022-09-23T15:05:18.974Z,20.50
2022-09-23T15:07:51.412Z,20.50
2022-09-23T15:10:23.722Z,20.40
2022-09-23T15:12:53.055Z,20.30
2022-09-23T15:15:25.280Z,20.10
2022-09-23T15:17:52.125Z,20.00
2022-09-23T15:20:24.284Z,19.90
2022-09-23T15:22:55.587Z,19.80
2022-09-23T15:25:30.122Z,19.70
2022-09-23T15:28:15.676Z,19.60
2022-09-23T15:30:42.477Z,19.50
2022-09-23T15:33:12.671Z,19.40
2022-09-23T15:35:45.877Z,19.30
2022-09-23T15:38:14.585Z,19.30
2022-09-23T15:40:42.131Z,19.20
2022-09-23T15:43:19.926Z,19.20
2022-09-23T15:45:49.654Z,19.20
2022-09-23T15:48:20.643Z,19.20
2022-09-23T15:50:47.429Z,19.10
2022-09-23T15:53:19.548Z,19.10
2022-09-23T15:55:46.558Z,19.10
2022-09-23T15:58:13.228Z,19.00
2022-09-23T16:00:40.120Z,19.00
2022-09-23T16:03:06.831Z,19.00
2022-09-23T16:05:38.524Z,19.00
2022-09-23T16:08:09.376Z,18.90
2022-09-23T16:10:38.543Z,18.90
2022-09-23T16:13:11.304Z,18.90
2022-09-23T16:15:38.947Z,18.80
2022-09-23T16:18:06.495Z,18.80
2022-09-23T16:20:36.393Z,18.70
2022-09-23T16:23:07.405Z,18.70
2022-09-23T16:25:35.325Z,18.60
2022-09-23T16:28:05.135Z,18.50
2022-09-23T16:30:34.594Z,18.50
2022-09-23T16:33:01.465Z,18.40
2022-09-23T16:35:32.625Z,18.30
2022-09-23T16:37:59.734Z,18.20
2022-09-23T16:40:26.639Z,18.10
2022-09-23T16:42:53.499Z,18.10
2022-09-23T16:45:22.649Z,18.00
2022-09-23T16:47:51.630Z,18.00
2022-09-23T16:50:20.920Z,17.90
2022-09-23T16:52:47.982Z,17.80
2022-09-23T16:55:15.023Z,17.70
2022-09-23T16:57:41.878Z,17.70
2022-09-23T17:00:15.547Z,17.60
2022-09-23T17:02:43.724Z,17.60
2022-09-23T17:05:10.875Z,17.50
2022-09-23T17:07:37.800Z,17.50
2022-09-23T17:10:05.556Z,17.40
2022-09-23T17:12:33.403Z,17.40
2022-09-23T17:15:00.343Z,17.30
2022-09-23T17:17:27.235Z,17.30
2022-09-23T17:19:55.698Z,17.20
2022-09-23T17:22:22.507Z,17.20
2022-09-23T17:24:49.200Z,17.20
2022-09-23T17:27:16.354Z,17.10
2022-09-23T17:29:43.100Z,17.10
2022-09-23T17:32:09.836Z,17.00
2022-09-23T17:34:36.632Z,17.00
2022-09-23T17:37:04.808Z,17.00
2022-09-23T17:39:31.793Z,16.90
2022-09-23T17:41:58.653Z,16.80
2022-09-23T17:44:25.505Z,16.80
2022-09-23T17:46:52.400Z,16.70
2022-09-23T17:49:19.381Z,16.70
2022-09-23T17:51:46.055Z,16.60
2022-09-23T17:54:14.684Z,16.60
2022-09-23T17:56:41.756Z,16.50
2022-09-23T17:59:11.151Z,16.50
2022-09-23T18:01:38.427Z,16.40
2022-09-23T18:04:05.353Z,16.40
2022-09-23T18:06:34.965Z,16.30
2022-09-23T18:09:04.795Z,16.20
2022-09-23T18:11:36.138Z,16.20
2022-09-23T18:14:06.366Z,16.10
2022-09-23T18:16:37.556Z,16.00
2022-09-23T18:19:04.972Z,16.00
2022-09-23T18:21:35.303Z,15.90
2022-09-23T18:24:28.098Z,15.80
2022-09-23T18:26:50.407Z,15.80
2022-09-23T18:29:17.542Z,15.70
2022-09-23T18:31:44.489Z,15.60
2022-09-23T18:34:13.500Z,15.60
2022-09-23T18:36:40.713Z,15.60
2022-09-23T18:39:08.013Z,15.50
2022-09-23T18:41:36.096Z,15.50
2022-09-23T18:44:04.982Z,15.50
2022-09-23T18:46:31.887Z,15.50
2022-09-23T18:48:59.509Z,15.40
2022-09-23T18:51:28.298Z,15.40
2022-09-23T18:53:56.786Z,15.40
2022-09-23T18:56:26.172Z,15.30
2022-09-23T18:58:55.324Z,15.30
2022-09-23T19:01:24.707Z,15.30
2022-09-23T19:03:54.872Z,15.30
2022-09-23T19:06:22.608Z,15.20
2022-09-23T19:08:50.565Z,15.20
2022-09-23T19:11:18.027Z,15.20
2022-09-23T19:13:45.300Z,15.20
2022-09-23T19:16:14.872Z,15.20
2022-09-23T19:18:44.705Z,15.10
2022-09-23T19:21:12.629Z,15.10
2022-09-23T19:23:46.155Z,15.10
2022-09-23T19:26:15.187Z,15.10
2022-09-23T19:28:47.530Z,15.10
2022-09-23T19:31:16.908Z,15.10
2022-09-23T19:33:50.707Z,15.10
2022-09-23T19:36:24.167Z,15.10
2022-09-23T19:38:55.897Z,15.10
2022-09-23T19:41:23.573Z,15.10
2022-09-23T19:43:52.875Z,15.10
2022-09-23T19:46:19.635Z,15.10
2022-09-23T19:48:47.981Z,15.10
2022-09-23T19:51:14.748Z,15.10
2022-09-23T19:53:42.266Z,15.00
2022-09-23T19:56:09.071Z,15.00
2022-09-23T19:58:35.814Z,15.00
2022-09-23T20:01:12.478Z,15.00
2022-09-23T20:03:39.459Z,15.00
2022-09-23T20:06:07.941Z,15.00
2022-09-23T20:08:35.915Z,15.00
2022-09-23T20:11:07.965Z,15.00
2022-09-23T20:13:34.831Z,15.00
2022-09-23T20:16:02.317Z,15.00
2022-09-23T20:18:29.261Z,15.00
2022-09-23T20:20:56.034Z,15.00
2022-09-23T20:23:24.285Z,15.00
2022-09-23T20:25:55.802Z,14.90
2022-09-23T20:28:22.690Z,14.90
2022-09-23T20:30:49.369Z,14.90
2022-09-23T20:33:16.174Z,14.90
2022-09-23T20:35:42.941Z,14.90
2022-09-23T20:41:03.498Z,14.80
2022-09-23T20:43:30.289Z,14.70
2022-09-23T20:45:57.140Z,14.70
2022-09-23T20:48:24.339Z,14.70
2022-09-23T20:50:51.186Z,14.70
2022-09-23T20:53:18.610Z,14.60
2022-09-23T20:55:49.434Z,14.60
2022-09-23T20:58:17.894Z,14.60
2022-09-23T21:00:45.221Z,14.60
2022-09-23T21:03:12.307Z,14.60
2022-09-23T21:05:39.456Z,14.50
2022-09-23T21:08:06.250Z,14.50
2022-09-23T21:10:33.081Z,14.50
2022-09-23T21:12:59.977Z,14.50
2022-09-23T21:15:28.217Z,14.50
2022-09-23T21:17:54.973Z,14.40
2022-09-23T21:20:21.933Z,14.40
2022-09-23T21:22:49.658Z,14.40
2022-09-23T21:25:27.464Z,14.40
2022-09-23T21:27:54.991Z,14.40
2022-09-23T21:30:21.814Z,14.40
2022-09-23T21:32:49.970Z,14.30
2022-09-23T21:35:16.760Z,14.30
2022-09-23T21:37:43.594Z,14.30
2022-09-23T21:40:11.153Z,14.30
2022-09-23T21:42:37.880Z,14.30
2022-09-23T21:45:05.970Z,14.30
2022-09-23T21:47:32.703Z,14.30
2022-09-23T21:50:00.932Z,14.30
2022-09-23T21:52:27.648Z,14.30
2022-09-23T21:54:54.603Z,14.30
2022-09-23T21:57:21.372Z,14.30
2022-09-23T21:59:48.694Z,14.20
2022-09-23T22:02:15.450Z,14.30
2022-09-23T22:04:43.087Z,14.20
2022-09-23T22:07:11.490Z,14.20
2022-09-23T22:09:38.310Z,14.20
2022-09-23T22:12:05.255Z,14.20
2022-09-23T22:14:32.215Z,14.20
2022-09-23T22:17:03.382Z,14.20
2022-09-23T22:19:32.873Z,14.20
2022-09-23T22:21:59.820Z,14.20
2022-09-23T22:24:28.139Z,14.10
2022-09-23T22:26:54.869Z,14.10
2022-09-23T22:29:21.716Z,14.10
2022-09-23T22:31:49.730Z,14.10
2022-09-23T22:34:37.605Z,14.10
2022-09-23T22:37:04.114Z,14.00
2022-09-23T22:39:32.251Z,14.00
2022-09-23T22:41:59.037Z,14.00
2022-09-23T22:44:25.818Z,14.00
2022-09-23T22:46:52.761Z,13.90
2022-09-23T22:49:20.293Z,13.90
2022-09-23T22:51:47.946Z,13.90
2022-09-23T22:54:14.779Z,13.90
2022-09-23T22:56:42.857Z,13.90
2022-09-23T22:59:12.129Z,13.90
2022-09-23T23:01:40.099Z,13.90
2022-09-23T23:04:06.960Z,13.90
2022-09-23T23:06:35.812Z,13.90
2022-09-23T23:09:05.722Z,13.90
2022-09-23T23:11:32.660Z,13.90
2022-09-23T23:14:01.336Z,13.90
2022-09-23T23:16:29.510Z,14.00
2022-09-23T23:18:56.426Z,14.00
2022-09-23T23:21:23.352Z,13.90
2022-09-23T23:23:52.761Z,13.90
2022-09-23T23:26:22.855Z,13.90
2022-09-23T23:28:51.559Z,13.90
2022-09-23T23:31:22.551Z,13.90
2022-09-23T23:33:50.344Z,13.90
2022-09-23T23:36:20.677Z,13.90
2022-09-23T23:38:51.470Z,13.90
2022-09-23T23:41:21.593Z,13.90
2022-09-23T23:43:54.153Z,13.90
2022-09-23T23:46:23.964Z,13.90
2022-09-23T23:48:51.441Z,13.90
2022-09-23T23:51:18.701Z,13.90
2022-09-23T23:53:45.707Z,13.90
2022-09-23T23:56:15.102Z,13.80
2022-09-23T23:58:42.690Z,13.80
